Time;durP1;ratioP1;P1;durP2;ratioP2;P2;SDS_P1;SDS_P2;PMS_P1;PMS_P2;Temp;Humidity;BMP_temperature;BMP_pressure;BME280_temperature;BME280_humidity;BME280_pressure;Samples;Min_cycle;Max_cycle;Signal;HPM_P1;HPM_P2
2023/08/17 00:02:16;;;;;;;4.82;3.45;;;20.30;99.90;;;;;;5093344;28;20575;-73
2023/08/17 00:04:42;;;;;;;3.00;2.80;;;20.20;99.90;;;;;;5093234;28;20627;-73
2023/08/17 00:07:08;;;;;;;4.22;3.13;;;20.10;99.90;;;;;;5091967;28;20623;-72
2023/08/17 00:09:33;;;;;;;3.88;3.58;;;20.10;99.90;;;;;;5093250;28;20170;-74
2023/08/17 00:11:59;;;;;;;3.22;2.95;;;20.00;99.90;;;;;;5092233;28;20176;-73
2023/08/17 00:14:25;;;;;;;4.25;3.00;;;19.90;99.90;;;;;;5092791;28;20498;-73
2023/08/17 00:16:50;;;;;;;3.17;2.90;;;19.90;99.90;;;;;;5095025;28;20227;-73
2023/08/17 00:19:17;;;;;;;5.60;2.80;;;20.00;99.90;;;;;;5097367;28;20250;-73
2023/08/17 00:21:45;;;;;;;3.58;3.00;;;20.00;99.90;;;;;;5095895;28;20231;-73
2023/08/17 00:24:10;;;;;;;4.47;3.17;;;20.00;99.90;;;;;;5097032;28;20304;-73
2023/08/17 00:26:37;;;;;;;3.30;3.00;;;19.90;99.90;;;;;;5097436;28;20252;-73
2023/08/17 00:29:02;;;;;;;3.80;3.10;;;19.90;99.90;;;;;;5096876;28;20164;-73
2023/08/17 00:31:28;;;;;;;4.53;3.45;;;19.90;99.90;;;;;;5097156;28;20525;-72
2023/08/17 00:33:54;;;;;;;4.70;3.10;;;19.80;99.90;;;;;;5097072;28;20175;-73
2023/08/17 00:36:19;;;;;;;4.72;3.00;;;19.80;99.90;;;;;;5096970;28;20223;-73
2023/08/17 00:38:45;;;;;;;4.32;3.67;;;19.70;99.90;;;;;;5097090;28;20168;-73
2023/08/17 00:41:10;;;;;;;6.13;3.45;;;19.60;99.90;;;;;;5097010;28;20302;-72
2023/08/17 00:43:36;;;;;;;3.97;3.42;;;19.50;99.90;;;;;;5096657;28;20174;-74
2023/08/17 00:46:02;;;;;;;4.22;3.35;;;19.50;99.90;;;;;;5096849;28;20176;-72
2023/08/17 00:48:31;;;;;;;5.85;3.58;;;19.50;99.90;;;;;;5096958;28;20221;-72
2023/08/17 00:50:58;;;;;;;5.70;3.40;;;19.60;99.90;;;;;;5096641;28;20223;-73
2023/08/17 00:53:29;;;;;;;3.55;3.22;;;19.50;99.90;;;;;;5096711;28;20203;-72
2023/08/17 00:55:55;;;;;;;5.43;3.67;;;19.60;99.90;;;;;;5096730;28;20188;-74
2023/08/17 00:58:21;;;;;;;6.03;3.83;;;19.70;99.90;;;;;;5096409;28;20226;-72
2023/08/17 01:00:47;;;;;;;4.30;3.78;;;19.70;99.90;;;;;;5096657;28;20659;-74
2023/08/17 01:03:13;;;;;;;5.28;4.00;;;19.70;99.90;;;;;;5096495;28;20175;-73
2023/08/17 01:05:39;;;;;;;5.45;4.38;;;19.70;99.90;;;;;;5096565;28;20673;-73
2023/08/17 01:08:05;;;;;;;7.50;3.85;;;19.60;99.90;;;;;;5096633;28;20167;-72
2023/08/17 01:11:06;;;;;;;4.15;3.85;;;19.60;99.90;;;;;;5096297;28;20263;-72
2023/08/17 01:13:39;;;;;;;4.35;3.95;;;19.50;99.90;;;;;;5091887;28;20627;-72
2023/08/17 01:16:12;;;;;;;5.07;4.32;;;19.50;99.90;;;;;;5096201;28;20635;-73
2023/08/17 01:18:40;;;;;;;4.22;3.90;;;19.40;99.90;;;;;;5096030;28;20718;-72
2023/08/17 01:21:09;;;;;;;4.47;3.75;;;19.40;99.90;;;;;;5096082;28;20705;-72
2023/08/17 01:23:35;;;;;;;4.85;4.25;;;19.40;99.90;;;;;;5096050;28;20167;-72
2023/08/17 01:26:00;;;;;;;5.07;4.50;;;19.40;99.90;;;;;;5095933;28;20519;-73
2023/08/17 01:28:27;;;;;;;5.20;4.10;;;19.40;99.90;;;;;;5095870;28;20168;-72
2023/08/17 01:31:02;;;;;;;4.03;3.72;;;19.30;99.90;;;;;;5094911;28;20334;-73
2023/08/17 01:34:07;;;;;;;4.80;4.40;;;19.30;99.90;;;;;;5096050;28;20160;-73
2023/08/17 01:36:37;;;;;;;4.80;4.35;;;19.30;99.90;;;;;;5096188;28;20172;-73
2023/08/17 01:39:04;;;;;;;5.80;4.45;;;19.20;99.90;;;;;;5095672;28;20179;-73
2023/08/17 01:41:31;;;;;;;4.70;4.30;;;19.10;99.90;;;;;;5093988;28;20200;-72
2023/08/17 01:43:58;;;;;;;6.05;5.25;;;19.00;99.90;;;;;;5095729;28;20167;-71
2023/08/17 01:46:29;;;;;;;5.43;4.40;;;19.00;99.90;;;;;;5095710;28;20180;-72
2023/08/17 01:48:56;;;;;;;4.82;4.35;;;19.10;99.90;;;;;;5095852;28;20187;-72
2023/08/17 01:51:21;;;;;;;5.97;4.28;;;19.10;99.90;;;;;;5094244;28;20172;-73
2023/08/17 01:53:47;;;;;;;5.07;4.35;;;19.10;99.90;;;;;;5095551;28;20506;-73
2023/08/17 01:56:13;;;;;;;4.30;4.00;;;19.00;99.90;;;;;;5095212;28;20176;-73
2023/08/17 01:58:38;;;;;;;4.72;4.32;;;19.00;99.90;;;;;;5095489;28;20658;-73
2023/08/17 02:01:04;;;;;;;6.15;4.38;;;19.00;99.90;;;;;;5095298;28;20210;-72
2023/08/17 02:03:29;;;;;;;4.78;4.35;;;19.00;99.90;;;;;;5095429;28;20172;-72
2023/08/17 02:05:59;;;;;;;4.97;4.32;;;18.90;99.90;;;;;;5095049;28;20665;-73
2023/08/17 02:08:25;;;;;;;4.82;4.15;;;18.90;99.90;;;;;;5095425;28;20193;-73
2023/08/17 02:10:51;;;;;;;6.38;4.05;;;18.90;99.90;;;;;;5094899;28;20168;-73
2023/08/17 02:13:17;;;;;;;4.93;4.28;;;18.90;99.90;;;;;;5095240;28;20531;-73
2023/08/17 02:15:43;;;;;;;4.65;4.25;;;18.90;99.90;;;;;;5094951;28;20164;-73
2023/08/17 02:18:09;;;;;;;6.95;4.15;;;18.80;99.90;;;;;;5094933;28;20215;-72
2023/08/17 02:20:35;;;;;;;4.75;4.30;;;18.70;99.90;;;;;;5094812;28;20200;-73
2023/08/17 02:23:01;;;;;;;4.28;3.85;;;18.60;99.90;;;;;;5094959;28;20208;-73
2023/08/17 02:25:27;;;;;;;4.70;4.05;;;18.50;99.90;;;;;;5093404;28;20178;-72
2023/08/17 02:27:52;;;;;;;7.22;3.92;;;18.50;99.90;;;;;;5094976;28;20217;-72
2023/08/17 02:30:18;;;;;;;4.07;3.75;;;18.40;99.90;;;;;;5094902;28;20175;-72
2023/08/17 02:32:44;;;;;;;4.60;4.25;;;18.30;99.90;;;;;;5094799;28;20176;-72
2023/08/17 02:35:09;;;;;;;6.40;4.22;;;18.20;99.90;;;;;;5094739;28;20210;-72
2023/08/17 02:37:35;;;;;;;5.32;4.20;;;18.20;99.90;;;;;;5094769;28;20164;-72
2023/08/17 02:40:01;;;;;;;5.40;4.28;;;18.20;99.90;;;;;;5092317;28;20171;-72
2023/08/17 02:42:26;;;;;;;5.53;4.10;;;18.20;99.90;;;;;;5094538;28;20530;-72
2023/08/17 02:44:52;;;;;;;7.47;4.80;;;18.20;99.90;;;;;;5094503;28;20244;-72
2023/08/17 02:47:17;;;;;;;7.82;4.63;;;18.30;99.90;;;;;;5094467;28;20628;-73
2023/08/17 02:49:43;;;;;;;5.70;4.43;;;18.20;99.90;;;;;;5094754;28;20195;-72
2023/08/17 02:52:08;;;;;;;5.57;5.00;;;18.20;99.90;;;;;;5094412;28;20518;-72
2023/08/17 02:54:34;;;;;;;6.00;4.68;;;18.10;99.90;;;;;;5092752;28;20684;-73
2023/08/17 02:57:00;;;;;;;5.35;3.70;;;18.00;99.90;;;;;;5094573;28;20180;-71
2023/08/17 02:59:25;;;;;;;5.28;4.72;;;18.10;99.90;;;;;;5094300;28;20556;-72
2023/08/17 03:01:51;;;;;;;5.03;4.53;;;18.10;99.90;;;;;;5094151;28;20693;-72
2023/08/17 03:04:17;;;;;;;5.05;4.45;;;18.10;99.90;;;;;;5094052;28;20164;-72
2023/08/17 03:06:42;;;;;;;6.28;4.30;;;18.10;99.90;;;;;;5094350;28;20179;-72
2023/08/17 03:09:08;;;;;;;5.63;4.53;;;18.10;99.90;;;;;;5093767;28;20635;-71
2023/08/17 03:11:33;;;;;;;5.22;4.72;;;18.20;99.90;;;;;;5094246;28;20264;-71
2023/08/17 03:14:02;;;;;;;5.82;4.85;;;18.30;99.90;;;;;;5093896;28;20209;-73
2023/08/17 03:16:29;;;;;;;5.05;4.68;;;18.10;99.90;;;;;;5093123;28;20211;-72
2023/08/17 03:18:55;;;;;;;5.40;4.80;;;18.00;99.90;;;;;;5092468;28;20207;-72
2023/08/17 03:21:21;;;;;;;5.65;4.60;;;18.10;99.90;;;;;;5092247;28;20667;-72
2023/08/17 03:23:47;;;;;;;5.90;5.25;;;18.00;99.90;;;;;;5093350;28;20167;-72
2023/08/17 03:26:13;;;;;;;5.22;4.63;;;18.00;99.90;;;;;;5092278;28;20176;-72
2023/08/17 03:28:38;;;;;;;7.03;4.70;;;18.00;99.90;;;;;;5093823;28;20270;-72
2023/08/17 03:31:04;;;;;;;7.05;4.78;;;18.00;99.90;;;;;;5093529;28;20174;-72
2023/08/17 03:33:29;;;;;;;9.18;4.93;;;18.10;99.90;;;;;;5093284;28;20180;-72
2023/08/17 03:35:55;;;;;;;6.00;5.00;;;18.10;99.90;;;;;;5093273;28;20203;-73
2023/08/17 03:38:20;;;;;;;5.30;4.80;;;18.20;99.90;;;;;;5091931;28;20179;-72
2023/08/17 03:40:49;;;;;;;5.35;4.53;;;18.20;99.90;;;;;;5093269;28;20203;-72
2023/08/17 03:43:15;;;;;;;7.05;4.88;;;18.30;99.90;;;;;;5093329;28;20164;-72
2023/08/17 03:45:41;;;;;;;10.20;4.78;;;18.30;99.90;;;;;;5093068;28;20172;-72
2023/08/17 03:48:07;;;;;;;7.70;4.50;;;18.40;99.90;;;;;;5093133;28;20168;-73
2023/08/17 03:50:33;;;;;;;5.00;4.13;;;18.50;99.90;;;;;;5092490;28;20207;-72
2023/08/17 03:52:59;;;;;;;4.93;4.47;;;18.50;99.90;;;;;;5092804;28;20171;-72
2023/08/17 03:55:24;;;;;;;5.30;4.65;;;18.60;99.90;;;;;;5092734;28;20232;-72
2023/08/17 03:57:50;;;;;;;4.93;4.20;;;18.60;99.90;;;;;;5092016;28;20200;-71
2023/08/17 04:00:15;;;;;;;5.57;4.50;;;18.60;99.90;;;;;;5093061;28;20179;-71
2023/08/17 04:02:41;;;;;;;5.78;4.65;;;18.60;99.90;;;;;;5092833;28;20209;-71
2023/08/17 04:05:07;;;;;;;5.85;4.82;;;18.50;99.90;;;;;;5092891;28;20676;-72
2023/08/17 04:07:32;;;;;;;7.35;4.68;;;18.50;99.90;;;;;;5091321;28;20175;-71
2023/08/17 04:09:58;;;;;;;5.93;4.15;;;18.50;99.90;;;;;;5092791;28;20257;-72
2023/08/17 04:12:24;;;;;;;7.70;4.38;;;18.40;99.90;;;;;;5091623;28;20627;-72
2023/08/17 04:14:49;;;;;;;8.90;4.47;;;18.40;99.90;;;;;;5091476;28;20225;-72
2023/08/17 04:17:15;;;;;;;6.88;4.60;;;18.50;99.90;;;;;;5092663;28;20216;-72
2023/08/17 04:19:40;;;;;;;5.32;4.43;;;18.50;99.90;;;;;;5091454;28;20214;-72
2023/08/17 04:22:06;;;;;;;10.52;4.75;;;18.30;99.90;;;;;;5092362;28;20298;-71
2023/08/17 04:24:32;;;;;;;8.20;4.57;;;18.10;99.90;;;;;;5092370;28;20626;-71
2023/08/17 04:26:57;;;;;;;9.02;4.95;;;18.10;99.90;;;;;;5092761;28;20168;-73
2023/08/17 04:29:23;;;;;;;5.70;4.80;;;18.00;99.90;;;;;;5092729;28;20228;-71
2023/08/17 04:31:48;;;;;;;11.43;4.80;;;17.90;99.90;;;;;;5092113;28;20168;-72
2023/08/17 04:34:14;;;;;;;8.05;4.53;;;17.90;99.90;;;;;;5092567;28;20544;-72
2023/08/17 04:36:39;;;;;;;9.68;5.00;;;17.80;99.90;;;;;;5092091;28;20183;-72
2023/08/17 04:39:06;;;;;;;8.27;5.05;;;17.90;99.90;;;;;;5092888;28;20229;-72
2023/08/17 04:41:31;;;;;;;9.45;4.93;;;18.00;99.90;;;;;;5092621;28;20667;-72
2023/08/17 04:43:57;;;;;;;8.68;5.25;;;18.00;99.90;;;;;;5092314;28;20236;-71
2023/08/17 04:46:23;;;;;;;7.55;4.50;;;18.00;99.90;;;;;;5091919;28;20515;-72
2023/08/17 04:48:49;;;;;;;5.60;5.05;;;17.90;99.90;;;;;;5092823;28;20529;-72
2023/08/17 04:51:15;;;;;;;11.35;5.13;;;18.00;99.90;;;;;;5092137;28;20175;-72
2023/08/17 04:53:41;;;;;;;6.10;4.43;;;18.00;99.90;;;;;;5092739;28;20172;-73
2023/08/17 04:56:06;;;;;;;8.95;5.13;;;18.00;99.90;;;;;;5092267;28;20168;-72
2023/08/17 04:58:32;;;;;;;9.20;4.80;;;18.00;99.90;;;;;;5092300;28;20168;-73
2023/08/17 05:00:59;;;;;;;8.95;4.90;;;18.00;99.90;;;;;;5092150;28;20199;-72
2023/08/17 05:03:25;;;;;;;8.45;4.97;;;18.20;99.90;;;;;;5094350;28;20275;-72
2023/08/17 05:05:52;;;;;;;6.03;4.75;;;18.20;99.90;;;;;;5095037;28;20627;-72
2023/08/17 05:08:18;;;;;;;8.85;5.13;;;18.10;99.90;;;;;;5095862;28;20172;-72
2023/08/17 05:10:44;;;;;;;5.82;4.80;;;18.10;99.90;;;;;;5094355;28;20229;-71
2023/08/17 05:13:09;;;;;;;7.90;4.78;;;18.00;99.90;;;;;;5095945;28;20171;-71
2023/08/17 05:15:35;;;;;;;5.30;4.60;;;18.00;99.90;;;;;;5095683;28;20171;-73
2023/08/17 05:18:01;;;;;;;7.50;4.30;;;18.10;99.90;;;;;;5094885;28;20722;-72
2023/08/17 05:20:26;;;;;;;10.07;4.50;;;18.10;99.90;;;;;;5095798;28;20199;-72
2023/08/17 05:22:52;;;;;;;12.70;4.95;;;18.10;99.90;;;;;;5095509;28;20255;-72
2023/08/17 05:25:17;;;;;;;8.67;4.97;;;18.10;99.90;;;;;;5095742;28;20174;-72
2023/08/17 05:27:43;;;;;;;6.80;4.82;;;18.10;99.90;;;;;;5095527;28;20187;-73
2023/08/17 05:30:09;;;;;;;6.70;4.60;;;18.00;99.90;;;;;;5095422;28;20163;-73
2023/08/17 05:32:34;;;;;;;5.20;4.57;;;18.00;99.90;;;;;;5095043;28;20172;-73
2023/08/17 05:35:00;;;;;;;11.25;4.60;;;18.00;99.90;;;;;;5095285;28;20164;-72
2023/08/17 05:37:26;;;;;;;8.03;4.70;;;18.10;99.90;;;;;;5095730;28;20171;-72
2023/08/17 05:39:51;;;;;;;7.40;4.70;;;18.00;99.90;;;;;;5095013;28;20283;-73
2023/08/17 05:42:17;;;;;;;6.57;4.80;;;18.10;99.90;;;;;;5093307;28;20207;-72
2023/08/17 05:44:42;;;;;;;9.98;4.78;;;18.10;99.90;;;;;;5095292;28;20470;-72
2023/08/17 05:47:08;;;;;;;9.15;4.72;;;18.20;99.90;;;;;;5094741;28;20199;-73
2023/08/17 05:49:33;;;;;;;7.60;4.00;;;18.30;99.90;;;;;;5095417;28;20194;-72
2023/08/17 05:51:59;;;;;;;5.55;4.30;;;18.30;99.90;;;;;;5094865;28;20180;-72
2023/08/17 05:54:25;;;;;;;10.07;4.50;;;18.30;99.90;;;;;;5094319;28;20180;-72
2023/08/17 05:56:50;;;;;;;7.78;4.28;;;18.20;99.90;;;;;;5095069;28;20167;-72
2023/08/17 05:59:16;;;;;;;8.32;4.60;;;18.30;99.90;;;;;;5094991;28;20172;-72
2023/08/17 06:01:41;;;;;;;7.20;4.50;;;18.30;99.90;;;;;;5092983;28;20215;-72
2023/08/17 06:04:07;;;;;;;13.20;4.80;;;18.40;99.90;;;;;;5094551;28;20176;-71
2023/08/17 06:06:33;;;;;;;10.45;4.43;;;18.50;99.90;;;;;;5095050;28;20179;-73
2023/08/17 06:08:59;;;;;;;10.77;4.70;;;18.60;99.90;;;;;;5094907;28;20168;-73
2023/08/17 06:11:24;;;;;;;6.72;4.50;;;18.60;99.90;;;;;;5094365;28;20199;-73
2023/08/17 06:13:50;;;;;;;7.57;4.32;;;18.60;99.90;;;;;;5093040;28;20822;-73
2023/08/17 06:16:16;;;;;;;9.40;4.65;;;18.60;99.90;;;;;;5094306;28;20200;-72
2023/08/17 06:18:42;;;;;;;12.00;4.68;;;18.60;99.90;;;;;;5094307;28;20528;-72
2023/08/17 06:21:08;;;;;;;8.02;4.55;;;18.60;99.90;;;;;;5094040;28;20738;-73
2023/08/17 06:23:33;;;;;;;5.97;4.57;;;18.50;99.90;;;;;;5094644;28;20226;-72
2023/08/17 06:26:00;;;;;;;6.00;4.78;;;18.60;99.90;;;;;;5093512;28;20572;-72
2023/08/17 06:28:26;;;;;;;11.82;4.90;;;18.60;99.90;;;;;;5093805;28;20178;-73
2023/08/17 06:30:55;;;;;;;7.90;4.85;;;18.60;99.90;;;;;;5093891;28;20175;-72
2023/08/17 06:33:22;;;;;;;6.50;4.57;;;18.50;99.90;;;;;;5093873;28;20196;-72
2023/08/17 06:35:49;;;;;;;6.90;5.03;;;18.50;99.90;;;;;;5093268;28;20511;-71
2023/08/17 06:38:14;;;;;;;9.95;4.82;;;18.40;99.90;;;;;;5093663;28;20179;-73
2023/08/17 06:40:40;;;;;;;8.98;4.93;;;18.30;99.90;;;;;;5093733;28;20192;-73
2023/08/17 06:43:06;;;;;;;7.13;4.72;;;18.30;99.90;;;;;;5093894;28;20525;-72
2023/08/17 06:45:32;;;;;;;6.95;4.80;;;18.30;99.90;;;;;;5093798;28;20164;-71
2023/08/17 06:47:58;;;;;;;8.55;4.95;;;18.30;99.90;;;;;;5093954;28;20175;-72
2023/08/17 06:50:24;;;;;;;6.88;4.47;;;18.50;99.90;;;;;;5093243;28;20180;-72
2023/08/17 06:52:50;;;;;;;7.22;4.47;;;18.40;99.90;;;;;;5093810;28;20175;-72
2023/08/17 06:55:16;;;;;;;7.78;4.88;;;18.50;99.90;;;;;;5093554;28;20217;-72
2023/08/17 06:57:42;;;;;;;6.70;4.75;;;18.40;99.90;;;;;;5093396;28;20167;-71
2023/08/17 07:00:08;;;;;;;9.35;5.30;;;18.40;99.90;;;;;;5093404;28;20239;-72
2023/08/17 07:02:34;;;;;;;7.72;4.82;;;18.40;99.90;;;;;;5093577;28;20172;-72
2023/08/17 07:05:00;;;;;;;7.78;5.22;;;18.40;99.90;;;;;;5091973;28;20178;-73
2023/08/17 07:07:26;;;;;;;7.68;5.32;;;18.50;99.90;;;;;;5093349;28;20174;-72
2023/08/17 07:09:52;;;;;;;10.68;5.80;;;18.50;99.90;;;;;;5093800;28;20243;-72
2023/08/17 07:12:19;;;;;;;8.60;6.05;;;18.40;99.90;;;;;;5092526;28;20620;-72
2023/08/17 07:14:45;;;;;;;12.27;6.78;;;18.40;99.90;;;;;;5091970;28;20171;-72
2023/08/17 07:17:10;;;;;;;12.38;6.40;;;18.30;99.90;;;;;;5093114;28;20219;-72
2023/08/17 07:19:36;;;;;;;9.32;6.15;;;18.30;99.90;;;;;;5092832;28;20175;-73
2023/08/17 07:22:01;;;;;;;9.68;5.55;;;18.50;99.90;;;;;;5093380;28;20214;-72
2023/08/17 07:24:27;;;;;;;7.32;5.32;;;18.60;99.90;;;;;;5093186;28;20634;-72
2023/08/17 07:26:53;;;;;;;10.95;5.63;;;18.60;99.90;;;;;;5092711;28;20611;-74
2023/08/17 07:29:18;;;;;;;12.60;5.43;;;18.70;99.90;;;;;;5084422;28;20176;-74
2023/08/17 07:31:44;;;;;;;10.88;6.20;;;18.60;99.90;;;;;;5091336;28;20192;-74
2023/08/17 07:34:10;;;;;;;7.13;5.80;;;18.60;99.90;;;;;;5091043;28;20176;-75
2023/08/17 07:36:36;;;;;;;12.82;6.03;;;18.60;99.90;;;;;;5092790;28;20179;-74
2023/08/17 07:39:01;;;;;;;6.20;5.22;;;18.70;99.90;;;;;;5091951;28;20642;-74
2023/08/17 07:41:27;;;;;;;10.93;5.47;;;18.90;99.90;;;;;;5091389;28;20566;-74
2023/08/17 07:43:52;;;;;;;9.63;5.43;;;18.80;99.90;;;;;;5092196;28;20183;-74
2023/08/17 07:46:18;;;;;;;8.85;5.68;;;18.90;99.90;;;;;;5092580;28;20233;-73
2023/08/17 07:48:44;;;;;;;6.80;5.28;;;19.00;99.90;;;;;;5092814;28;20218;-74
2023/08/17 07:51:09;;;;;;;12.32;6.13;;;19.00;99.90;;;;;;5092462;28;20188;-74
2023/08/17 07:53:35;;;;;;;7.70;6.03;;;18.80;99.90;;;;;;5092835;28;20164;-74
2023/08/17 07:56:01;;;;;;;9.45;6.72;;;18.80;99.90;;;;;;5092010;28;20175;-75
2023/08/17 07:58:26;;;;;;;10.75;7.10;;;18.70;99.90;;;;;;5092107;28;20218;-74
2023/08/17 08:00:52;;;;;;;12.27;7.40;;;18.70;99.90;;;;;;5092557;28;20531;-74
2023/08/17 08:03:18;;;;;;;14.52;7.72;;;18.70;99.90;;;;;;5092121;28;20202;-76
2023/08/17 08:05:44;;;;;;;11.45;7.45;;;18.80;99.90;;;;;;5092581;28;20211;-74
2023/08/17 08:08:09;;;;;;;10.50;7.50;;;18.80;99.90;;;;;;5091787;28;20224;-76
2023/08/17 08:10:35;;;;;;;11.43;7.10;;;18.80;99.90;;;;;;5092468;28;20229;-75
2023/08/17 08:13:00;;;;;;;13.65;7.45;;;18.90;99.90;;;;;;5097950;28;20187;-75
2023/08/17 08:15:26;;;;;;;14.43;7.03;;;18.90;99.90;;;;;;5101100;28;20494;-74
2023/08/17 08:17:51;;;;;;;11.85;7.05;;;18.90;99.90;;;;;;5106423;28;20230;-74
2023/08/17 08:20:17;;;;;;;13.15;7.43;;;19.00;99.90;;;;;;5095285;28;20646;-75
2023/08/17 08:22:42;;;;;;;17.73;7.05;;;18.90;99.90;;;;;;5110316;28;20183;-76
2023/08/17 08:25:08;;;;;;;10.63;7.10;;;18.90;99.90;;;;;;5103408;28;20221;-74
2023/08/17 08:27:34;;;;;;;9.80;6.60;;;18.90;99.90;;;;;;5103655;28;20175;-73
2023/08/17 08:29:59;;;;;;;13.38;6.45;;;18.90;99.90;;;;;;5096416;28;20175;-73
2023/08/17 08:32:25;;;;;;;10.57;7.07;;;18.90;99.90;;;;;;5108442;28;20258;-76
2023/08/17 08:34:50;;;;;;;11.98;6.78;;;18.90;99.90;;;;;;5098060;28;20199;-73
2023/08/17 08:37:16;;;;;;;12.90;7.50;;;18.90;99.90;;;;;;5102053;28;20624;-74
2023/08/17 08:39:53;;;;;;;12.13;8.00;;;19.00;99.90;;;;;;5106933;28;20261;-74
2023/08/17 08:42:19;;;;;;;10.10;7.57;;;18.90;99.90;;;;;;5098558;28;20199;-75
2023/08/17 08:44:45;;;;;;;15.50;7.60;;;19.10;99.90;;;;;;5110808;28;20619;-75
2023/08/17 08:47:12;;;;;;;10.52;7.45;;;19.20;99.90;;;;;;5103955;28;20174;-75
2023/08/17 08:50:03;;;;;;;10.77;7.28;;;19.20;99.90;;;;;;5103103;28;20202;-74
2023/08/17 08:52:44;;;;;;;13.68;7.05;;;19.30;99.90;;;;;;5111816;28;20183;-74
2023/08/17 08:55:15;;;;;;;7.90;6.75;;;19.40;99.90;;;;;;5096394;28;20619;-74
2023/08/17 08:57:42;;;;;;;7.60;6.38;;;19.50;99.90;;;;;;5108307;28;20179;-74
2023/08/17 09:00:09;;;;;;;11.48;6.95;;;19.60;99.90;;;;;;5098907;28;20263;-73
2023/08/17 09:02:35;;;;;;;9.63;6.90;;;19.50;99.90;;;;;;5111201;28;20235;-74
2023/08/17 09:05:02;;;;;;;11.75;7.40;;;19.40;99.90;;;;;;5101730;28;20179;-76
2023/08/17 09:07:32;;;;;;;7.78;6.75;;;19.60;99.90;;;;;;5103148;28;20176;-75
2023/08/17 09:09:58;;;;;;;10.32;6.68;;;19.70;99.90;;;;;;5110166;28;20197;-74
2023/08/17 09:12:25;;;;;;;10.38;6.40;;;19.70;99.90;;;;;;5096276;28;20655;-75
2023/08/17 09:14:50;;;;;;;14.25;7.05;;;19.90;99.90;;;;;;5095745;28;20220;-75
2023/08/17 09:17:26;;;;;;;10.30;6.55;;;20.10;99.90;;;;;;5094939;28;20219;-74
2023/08/17 09:19:51;;;;;;;7.28;5.93;;;20.80;99.90;;;;;;5096109;28;20178;-75
2023/08/17 09:22:36;;;;;;;8.85;5.72;;;21.10;99.90;;;;;;5112210;28;20214;-73
2023/08/17 09:25:02;;;;;;;10.73;5.30;;;21.70;99.90;;;;;;5087551;28;20184;-74
2023/08/17 09:27:28;;;;;;;7.80;7.00;;;22.30;99.90;;;;;;5113748;28;20261;-72
2023/08/17 09:30:05;;;;;;;8.07;7.05;;;22.10;99.90;;;;;;5102484;28;20168;-74
2023/08/17 09:32:31;;;;;;;10.30;7.00;;;21.80;99.90;;;;;;5111538;28;20189;-73
2023/08/17 09:35:07;;;;;;;8.25;6.57;;;21.30;99.90;;;;;;5099836;28;20167;-74
2023/08/17 09:37:33;;;;;;;10.50;6.80;;;21.10;99.90;;;;;;5104793;28;20244;-74
2023/08/17 09:39:59;;;;;;;8.25;6.85;;;21.00;99.90;;;;;;5107615;28;20177;-74
2023/08/17 09:42:27;;;;;;;10.30;7.13;;;20.80;99.90;;;;;;5098180;28;20298;-74
2023/08/17 09:44:53;;;;;;;10.27;6.72;;;21.10;99.90;;;;;;5110398;28;20170;-74
2023/08/17 09:47:23;;;;;;;12.70;8.00;;;21.00;99.90;;;;;;5102316;28;20175;-75
2023/08/17 09:49:52;;;;;;;10.95;7.78;;;21.20;99.90;;;;;;5102497;28;20195;-75
2023/08/17 09:52:22;;;;;;;10.40;7.75;;;21.70;99.90;;;;;;5109707;28;20233;-76
2023/08/17 09:54:48;;;;;;;11.48;7.50;;;21.70;99.90;;;;;;5081009;28;20203;-73
2023/08/17 09:57:14;;;;;;;9.55;8.20;;;22.10;99.90;;;;;;5107075;28;20276;-74
2023/08/17 09:59:41;;;;;;;8.80;7.35;;;21.90;99.90;;;;;;5103602;28;20276;-74
2023/08/17 10:02:21;;;;;;;10.93;8.90;;;21.80;99.90;;;;;;5099418;28;20208;-73
2023/08/17 10:04:51;;;;;;;10.88;8.25;;;21.90;99.90;;;;;;5080816;28;20176;-74
2023/08/17 10:07:20;;;;;;;9.18;7.90;;;21.60;99.90;;;;;;5104721;28;20172;-75
2023/08/17 10:09:52;;;;;;;12.00;6.82;;;21.70;99.90;;;;;;5103295;28;20226;-75
2023/08/17 10:12:19;;;;;;;9.90;7.10;;;21.90;99.90;;;;;;5110014;28;20179;-75
2023/08/17 10:14:59;;;;;;;10.77;7.70;;;22.10;99.90;;;;;;5090953;28;20194;-75
2023/08/17 10:17:34;;;;;;;12.25;7.18;;;22.60;99.90;;;;;;5071669;28;20234;-74
2023/08/17 10:20:01;;;;;;;9.63;7.28;;;22.50;99.90;;;;;;5072686;28;20251;-74
2023/08/17 10:22:51;;;;;;;10.15;7.18;;;22.20;99.90;;;;;;5084206;28;20272;-75
2023/08/17 10:25:18;;;;;;;11.60;8.02;;;22.20;99.90;;;;;;5094132;28;20184;-74
2023/08/17 10:27:45;;;;;;;8.52;7.70;;;22.30;99.90;;;;;;5094482;28;20209;-75
2023/08/17 10:30:11;;;;;;;13.07;9.27;;;22.20;99.90;;;;;;5094275;28;20275;-74
2023/08/17 10:32:38;;;;;;;9.43;8.30;;;22.20;99.90;;;;;;5093913;28;20180;-75
2023/08/17 10:35:05;;;;;;;9.25;7.68;;;22.20;99.90;;;;;;5093778;28;20210;-75
2023/08/17 10:37:32;;;;;;;12.88;8.20;;;22.40;99.90;;;;;;5093423;28;20176;-74
2023/08/17 10:39:57;;;;;;;9.93;7.32;;;22.60;99.90;;;;;;5092586;28;20174;-74
2023/08/17 10:42:34;;;;;;;10.20;7.82;;;23.20;99.90;;;;;;5093504;28;20282;-74
2023/08/17 10:45:03;;;;;;;12.20;10.35;;;23.50;99.90;;;;;;5093939;28;20163;-75
2023/08/17 10:47:32;;;;;;;13.65;12.05;;;23.40;99.90;;;;;;5093804;28;20168;-74
2023/08/17 10:50:22;;;;;;;14.85;12.02;;;22.70;99.90;;;;;;5094200;28;20682;-74
2023/08/17 10:52:49;;;;;;;13.18;8.13;;;22.70;99.90;;;;;;5082210;28;20184;-75
2023/08/17 10:55:15;;;;;;;13.48;9.65;;;22.70;99.90;;;;;;5108249;28;20203;-75
2023/08/17 10:57:42;;;;;;;11.73;8.77;;;22.60;99.90;;;;;;5114367;28;20203;-75
2023/08/17 11:00:13;;;;;;;10.40;8.80;;;22.80;99.90;;;;;;5113840;28;20197;-75
2023/08/17 11:02:39;;;;;;;9.18;8.20;;;22.90;99.90;;;;;;5112420;28;20210;-74
2023/08/17 11:05:07;;;;;;;9.90;8.48;;;23.50;99.90;;;;;;5113666;28;20237;-74
2023/08/17 11:07:45;;;;;;;9.55;8.55;;;23.20;99.90;;;;;;5082346;28;20554;-75
2023/08/17 11:10:20;;;;;;;8.27;7.47;;;22.70;99.90;;;;;;5092985;28;20191;-74
2023/08/17 11:12:46;;;;;;;8.30;7.40;;;23.00;99.90;;;;;;5093728;28;20167;-74
2023/08/17 11:15:12;;;;;;;9.48;7.38;;;23.30;99.90;;;;;;5093274;28;20179;-75
2023/08/17 11:17:40;;;;;;;8.27;7.47;;;23.50;99.90;;;;;;5075717;28;20714;-74
2023/08/17 11:20:09;;;;;;;10.48;8.55;;;23.60;99.90;;;;;;5074499;28;20267;-74
2023/08/17 11:22:35;;;;;;;9.23;8.32;;;23.00;99.90;;;;;;5068527;28;20203;-75
2023/08/17 11:25:01;;;;;;;8.63;7.78;;;22.90;99.90;;;;;;5073895;28;20183;-74
2023/08/17 11:27:30;;;;;;;8.82;7.85;;;22.80;99.90;;;;;;5075356;28;20184;-73
2023/08/17 11:29:55;;;;;;;10.65;8.00;;;22.80;99.90;;;;;;5074674;28;20652;-73
2023/08/17 11:32:21;;;;;;;9.23;8.40;;;22.90;99.90;;;;;;5075006;28;20182;-73
2023/08/17 11:34:46;;;;;;;11.43;9.32;;;22.60;99.90;;;;;;5070225;28;20608;-75
2023/08/17 11:37:12;;;;;;;10.90;8.48;;;22.30;99.90;;;;;;5101208;28;20168;-74
2023/08/17 11:39:38;;;;;;;10.23;8.45;;;22.00;99.90;;;;;;5095727;28;20582;-74
2023/08/17 11:42:04;;;;;;;10.20;7.80;;;21.90;99.90;;;;;;5112082;28;20666;-75
2023/08/17 11:44:30;;;;;;;10.23;7.40;;;21.80;99.90;;;;;;5113503;28;20175;-74
2023/08/17 11:46:55;;;;;;;13.32;7.95;;;21.90;99.90;;;;;;5101831;28;20631;-76
2023/08/17 11:49:23;;;;;;;13.43;7.88;;;22.00;99.90;;;;;;5106000;28;20187;-74
2023/08/17 11:51:51;;;;;;;11.50;7.60;;;21.90;99.90;;;;;;5093783;28;20223;-73
2023/08/17 11:54:16;;;;;;;10.07;9.18;;;22.00;99.90;;;;;;5107579;28;20175;-74
2023/08/17 11:56:42;;;;;;;9.25;8.07;;;22.10;99.90;;;;;;5100580;28;20171;-75
2023/08/17 11:59:14;;;;;;;8.82;7.70;;;22.10;99.90;;;;;;5100082;28;20175;-76
2023/08/17 12:01:40;;;;;;;13.35;7.80;;;22.30;99.90;;;;;;5109096;28;20191;-77
2023/08/17 12:04:06;;;;;;;11.00;8.32;;;22.30;99.90;;;;;;5078317;28;20171;-75
2023/08/17 12:06:32;;;;;;;10.75;7.57;;;22.50;99.90;;;;;;5105456;28;20241;-77
2023/08/17 12:08:58;;;;;;;13.25;8.45;;;22.40;99.90;;;;;;5103425;28;20262;-77
2023/08/17 12:11:25;;;;;;;11.23;9.00;;;22.60;99.90;;;;;;5097524;28;20698;-75
2023/08/17 12:13:53;;;;;;;12.43;8.30;;;22.60;99.90;;;;;;5112349;28;20167;-74
2023/08/17 12:16:23;;;;;;;10.48;8.60;;;22.60;99.90;;;;;;5101596;28;20217;-75
2023/08/17 12:18:49;;;;;;;10.85;9.13;;;22.40;99.90;;;;;;5106510;28;20223;-75
2023/08/17 12:21:15;;;;;;;9.50;8.40;;;22.20;99.90;;;;;;5109595;28;20207;-74
2023/08/17 12:23:42;;;;;;;15.55;10.13;;;22.00;99.90;;;;;;5099326;28;20606;-75
2023/08/17 12:26:08;;;;;;;12.88;8.93;;;22.00;99.90;;;;;;5112463;28;20214;-77
2023/08/17 12:28:34;;;;;;;12.30;9.57;;;22.00;99.90;;;;;;5102355;28;20172;-77
2023/08/17 12:31:00;;;;;;;11.60;10.32;;;22.10;99.90;;;;;;5104060;28;20172;-75
2023/08/17 12:33:26;;;;;;;12.57;9.95;;;22.00;99.90;;;;;;5110484;28;20645;-75
2023/08/17 12:35:52;;;;;;;12.38;10.13;;;21.70;99.90;;;;;;5098985;28;20176;-73
2023/08/17 12:38:17;;;;;;;13.00;10.23;;;21.80;99.90;;;;;;5110835;28;20175;-75
2023/08/17 12:40:43;;;;;;;15.52;10.30;;;21.80;99.90;;;;;;5104174;28;20718;-75
2023/08/17 12:43:09;;;;;;;14.32;10.93;;;22.00;99.90;;;;;;5103906;28;20201;-75